createdAt,value
2018-06-11T00:06:13.824Z,99.90
2018-06-11T00:36:36.753Z,99.90
2018-06-11T00:46:44.662Z,99.90
2018-06-11T00:56:52.572Z,99.90
2018-06-11T01:07:00.484Z,99.90
2018-06-11T01:12:04.568Z,99.90
2018-06-11T01:17:08.650Z,99.90
2018-06-11T01:37:24.444Z,99.90
2018-06-11T01:42:28.527Z,99.90
2018-06-11T02:07:47.726Z,99.90
2018-06-11T02:12:51.754Z,99.90
2018-06-11T02:17:55.774Z,99.90
2018-06-11T02:22:59.790Z,99.90
2018-06-11T02:43:15.379Z,99.90
2018-06-11T02:58:26.975Z,99.90
2018-06-11T03:08:34.810Z,99.90
2018-06-11T03:18:42.627Z,99.90
2018-06-11T03:28:50.485Z,99.90
2018-06-11T03:38:58.409Z,99.90
2018-06-11T04:24:33.121Z,99.90
2018-06-11T04:39:44.891Z,99.90
2018-06-11T05:00:00.443Z,99.80
2018-06-11T05:05:04.518Z,99.50
2018-06-11T05:10:08.642Z,98.80
2018-06-11T05:40:33.169Z,97.80
2018-06-11T05:45:37.279Z,97.80
2018-06-11T06:10:56.773Z,96.90
2018-06-11T06:16:00.861Z,97.10
2018-06-11T06:26:08.766Z,96.00
2018-06-11T06:46:24.473Z,92.90
2018-06-11T06:51:28.563Z,92.60
2018-06-11T07:01:36.550Z,93.10
2018-06-11T07:16:48.301Z,93.80
2018-06-11T07:42:07.726Z,93.00
2018-06-11T07:47:11.813Z,92.80
2018-06-11T08:07:27.413Z,92.60
2018-06-11T08:22:39.103Z,92.50
2018-06-11T08:47:58.591Z,92.80
2018-06-11T08:58:06.498Z,93.00
2018-06-11T09:08:14.424Z,94.40
2018-06-11T09:13:18.514Z,94.60
2018-06-11T09:23:26.433Z,95.10
2018-06-11T10:29:17.122Z,91.10
2018-06-11T10:34:21.194Z,90.90
2018-06-11T10:39:25.269Z,91.00
2018-06-11T10:59:40.883Z,90.10
2018-06-11T11:04:44.965Z,90.20
2018-06-11T11:09:49.040Z,89.60
2018-06-11T11:19:57.223Z,90.10
2018-06-11T11:40:13.936Z,88.30
2018-06-11T11:45:18.055Z,88.60
2018-06-11T11:50:22.137Z,87.90
2018-06-11T12:00:30.087Z,88.00
2018-06-11T12:15:41.849Z,85.90
2018-06-11T12:20:46.043Z,86.60
2018-06-11T12:35:57.805Z,86.00
2018-06-11T13:26:37.044Z,83.90
2018-06-11T14:02:05.127Z,83.00
2018-06-11T14:07:09.456Z,83.80
2018-06-11T14:12:13.558Z,82.50
2018-06-11T14:17:17.657Z,83.00
2018-06-11T14:27:25.641Z,85.00
2018-06-11T14:42:37.906Z,87.40
2018-06-11T15:07:57.669Z,87.30
2018-06-11T15:18:09.128Z,90.10
2018-06-11T15:33:20.874Z,90.60
2018-06-11T16:03:44.221Z,92.90
2018-06-11T16:34:07.518Z,92.30
2018-06-11T16:59:26.946Z,92.70
2018-06-11T18:00:14.182Z,91.50
2018-06-11T18:05:18.277Z,91.30
2018-06-11T18:10:22.398Z,90.70
2018-06-11T18:15:26.485Z,90.90
2018-06-11T18:50:53.539Z,92.90
2018-06-11T19:01:01.569Z,94.30
2018-06-11T19:11:09.540Z,96.10
2018-06-11T19:21:18.306Z,96.70
2018-06-11T19:31:26.235Z,97.80
2018-06-11T19:36:30.354Z,98.40
2018-06-11T19:51:42.087Z,99.20
2018-06-11T20:17:01.611Z,99.90
2018-06-11T20:27:09.589Z,99.90
2018-06-11T20:32:13.705Z,99.90
2018-06-11T20:52:29.327Z,99.90
2018-06-11T20:57:33.362Z,99.90
2018-06-11T21:12:45.158Z,99.90
2018-06-11T21:22:53.229Z,99.90
2018-06-11T21:53:16.761Z,99.90
2018-06-11T22:03:24.747Z,99.90
2018-06-11T22:08:28.778Z,99.90
2018-06-11T22:23:40.526Z,99.90
2018-06-11T22:28:44.625Z,99.90
2018-06-11T22:38:52.563Z,99.90
2018-06-11T22:59:08.297Z,99.90
2018-06-11T23:14:20.140Z,99.90
2018-06-11T23:24:28.050Z,99.90
2018-06-11T23:44:43.617Z,99.90
2018-06-11T23:49:47.742Z,99.90
2018-06-11T23:59:55.659Z,99.90
